createdAt,value
2019-02-06T00:01:39.301Z,79.69
2019-02-06T00:03:46.655Z,79.72
2019-02-06T00:05:53.853Z,79.67
2019-02-06T00:08:01.196Z,79.67
2019-02-06T00:10:08.707Z,79.64
2019-02-06T00:12:16.104Z,79.88
2019-02-06T00:14:23.554Z,79.84
2019-02-06T00:16:30.704Z,79.77
2019-02-06T00:18:38.118Z,79.69
2019-02-06T00:20:45.618Z,79.86
2019-02-06T00:22:53.037Z,79.81
2019-02-06T00:25:00.444Z,80.01
2019-02-06T00:27:07.973Z,79.72
2019-02-06T00:29:15.361Z,79.77
2019-02-06T00:31:22.527Z,79.77
2019-02-06T00:33:29.960Z,79.94
2019-02-06T00:35:37.306Z,79.86
2019-02-06T00:37:44.753Z,79.65
2019-02-06T00:39:52.160Z,79.97
2019-02-06T00:42:01.311Z,79.91
2019-02-06T00:44:08.814Z,79.92
2019-02-06T00:46:16.281Z,79.76
2019-02-06T00:48:23.787Z,79.92
2019-02-06T00:50:31.303Z,79.95
2019-02-06T00:52:38.708Z,80.21
2019-02-06T00:54:46.049Z,80.13
2019-02-06T00:56:53.630Z,80.19
2019-02-06T00:59:01.129Z,80.00
2019-02-06T01:01:09.035Z,80.14
2019-02-06T01:03:16.630Z,80.15
2019-02-06T01:05:24.189Z,79.85
2019-02-06T01:07:31.590Z,79.90
2019-02-06T01:09:39.045Z,80.12
2019-02-06T01:11:46.426Z,80.18
2019-02-06T01:13:53.887Z,80.08
2019-02-06T01:16:01.283Z,80.18
2019-02-06T01:18:08.705Z,80.19
2019-02-06T01:20:17.117Z,80.02
2019-02-06T01:22:24.509Z,79.90
2019-02-06T01:24:32.219Z,80.15
2019-02-06T01:26:39.781Z,80.26
2019-02-06T01:28:47.051Z,80.28
2019-02-06T01:31:04.062Z,79.96
2019-02-06T01:33:11.477Z,80.31
2019-02-06T01:35:18.849Z,80.35
2019-02-06T01:37:26.227Z,80.33
2019-02-06T01:39:33.864Z,80.10
2019-02-06T01:41:41.238Z,80.40
2019-02-06T01:43:48.627Z,80.22
2019-02-06T01:45:56.023Z,80.02
2019-02-06T01:48:03.383Z,80.11
2019-02-06T01:50:12.430Z,80.31
2019-02-06T01:52:19.441Z,80.62
2019-02-06T01:54:26.473Z,80.53
2019-02-06T01:56:33.535Z,80.40
2019-02-06T01:58:40.734Z,80.70
2019-02-06T02:00:47.980Z,80.40
2019-02-06T02:02:55.316Z,80.35
2019-02-06T02:05:02.728Z,80.36
2019-02-06T02:07:10.555Z,80.11
2019-02-06T02:09:21.297Z,80.33
2019-02-06T02:11:28.660Z,80.38
2019-02-06T02:13:36.231Z,80.68
2019-02-06T02:15:43.718Z,80.59
2019-02-06T02:17:51.088Z,80.53
2019-02-06T02:19:58.434Z,80.61
2019-02-06T02:22:06.078Z,80.45
2019-02-06T02:24:13.338Z,80.57
2019-02-06T02:26:20.774Z,80.51
2019-02-06T02:28:28.095Z,80.38
2019-02-06T02:30:43.338Z,80.25
2019-02-06T02:32:50.338Z,80.25
2019-02-06T02:34:57.392Z,80.39
2019-02-06T02:37:04.797Z,80.26
2019-02-06T02:39:11.850Z,80.28
2019-02-06T02:41:18.887Z,80.05
2019-02-06T02:43:25.887Z,80.19
2019-02-06T02:45:33.207Z,80.19
2019-02-06T02:47:40.301Z,80.30
2019-02-06T02:49:47.663Z,80.37
2019-02-06T02:51:54.916Z,80.33
2019-02-06T02:54:02.164Z,80.45
2019-02-06T02:56:09.369Z,80.42
2019-02-06T02:58:16.788Z,80.45
2019-02-06T03:00:30.899Z,80.27
2019-02-06T03:02:47.540Z,80.34
2019-02-06T03:05:05.219Z,80.17
2019-02-06T03:07:12.508Z,80.51
2019-02-06T03:09:19.833Z,80.25
2019-02-06T03:11:27.147Z,80.61
2019-02-06T03:13:34.801Z,80.59
2019-02-06T03:15:42.080Z,80.32
2019-02-06T03:17:49.481Z,80.40
2019-02-06T03:19:56.920Z,80.45
2019-02-06T03:22:04.267Z,80.54
2019-02-06T03:24:12.053Z,80.63
2019-02-06T03:26:19.429Z,80.48
2019-02-06T03:28:26.838Z,80.45
2019-02-06T03:30:34.232Z,80.50
2019-02-06T03:32:41.782Z,80.30
2019-02-06T03:34:49.060Z,80.27
2019-02-06T03:36:56.417Z,80.38
2019-02-06T03:39:05.313Z,80.23
2019-02-06T03:41:12.677Z,80.31
2019-02-06T03:43:19.911Z,80.42
2019-02-06T03:45:27.144Z,80.42
2019-02-06T03:47:34.554Z,80.51
2019-02-06T03:49:42.769Z,80.44
2019-02-06T03:51:50.175Z,80.31
2019-02-06T03:53:57.707Z,80.32
2019-02-06T03:56:05.182Z,80.24
2019-02-06T03:58:12.697Z,80.25
2019-02-06T04:00:20.133Z,80.14
2019-02-06T04:02:27.585Z,80.37
2019-02-06T04:04:35.018Z,80.22
2019-02-06T04:06:53.675Z,80.10
2019-02-06T04:08:51.110Z,80.34
2019-02-06T04:10:58.677Z,80.34
2019-02-06T04:13:05.991Z,80.09
2019-02-06T04:15:13.081Z,80.12
2019-02-06T04:17:20.108Z,80.05
2019-02-06T04:19:27.819Z,80.20
2019-02-06T04:21:35.194Z,80.00
2019-02-06T04:23:42.592Z,80.07
2019-02-06T04:25:50.107Z,79.99
2019-02-06T04:27:57.535Z,79.96
2019-02-06T04:30:05.097Z,79.84
2019-02-06T04:32:12.508Z,79.95
2019-02-06T04:34:19.848Z,79.87
2019-02-06T04:36:27.228Z,79.96
2019-02-06T04:38:34.651Z,79.98
2019-02-06T04:40:42.053Z,79.93
2019-02-06T04:42:49.222Z,79.93
2019-02-06T04:44:56.618Z,80.02
2019-02-06T04:47:04.368Z,79.83
2019-02-06T04:49:11.868Z,79.59
2019-02-06T04:51:19.325Z,79.66
2019-02-06T04:53:26.700Z,79.64
2019-02-06T04:55:34.052Z,79.97
2019-02-06T04:57:41.512Z,79.66
2019-02-06T04:59:48.918Z,79.59
2019-02-06T05:01:56.388Z,79.74
2019-02-06T05:04:03.842Z,79.83
2019-02-06T05:06:11.157Z,79.67
2019-02-06T05:08:18.634Z,79.52
2019-02-06T05:10:25.867Z,79.71
2019-02-06T05:12:33.334Z,79.60
2019-02-06T05:14:41.052Z,79.81
2019-02-06T05:16:48.488Z,79.59
2019-02-06T05:18:55.682Z,79.62
2019-02-06T05:21:03.173Z,79.59
2019-02-06T05:23:10.928Z,79.67
2019-02-06T05:25:18.351Z,79.57
2019-02-06T05:27:26.026Z,79.87
2019-02-06T05:29:34.434Z,79.54
2019-02-06T05:31:41.925Z,79.40
2019-02-06T05:33:49.286Z,79.45
2019-02-06T05:35:56.690Z,79.59
2019-02-06T05:38:04.099Z,79.46
2019-02-06T05:40:11.365Z,79.54
2019-02-06T05:42:18.918Z,79.53
2019-02-06T05:44:26.402Z,79.62
2019-02-06T05:46:33.762Z,79.49
2019-02-06T05:48:44.349Z,79.41
2019-02-06T05:50:51.678Z,79.47
2019-02-06T05:52:59.008Z,79.35
2019-02-06T05:55:07.200Z,79.40
2019-02-06T05:57:14.432Z,79.54
2019-02-06T05:59:21.735Z,79.67
2019-02-06T06:01:29.061Z,79.39
2019-02-06T06:03:36.574Z,79.57
2019-02-06T06:05:44.073Z,79.49
2019-02-06T06:07:51.532Z,79.36
2019-02-06T06:09:59.115Z,79.43
2019-02-06T06:12:06.595Z,79.26
2019-02-06T06:14:13.945Z,79.43
2019-02-06T06:16:21.474Z,79.25
2019-02-06T06:18:28.789Z,79.34
2019-02-06T06:20:36.256Z,79.45
2019-02-06T06:22:43.654Z,79.25
2019-02-06T06:24:51.138Z,79.19
2019-02-06T06:26:58.525Z,79.19
2019-02-06T06:29:05.987Z,79.24
2019-02-06T06:31:13.334Z,79.23
2019-02-06T06:33:20.719Z,79.40
2019-02-06T06:35:28.841Z,79.08
2019-02-06T06:37:36.190Z,79.22
2019-02-06T06:39:43.664Z,79.34
2019-02-06T06:41:51.058Z,79.21
2019-02-06T06:43:58.483Z,79.42
2019-02-06T06:46:05.947Z,79.42
2019-02-06T06:48:13.302Z,79.41
2019-02-06T06:50:22.919Z,79.71
2019-02-06T06:52:30.041Z,79.76
2019-02-06T06:54:37.461Z,79.41
2019-02-06T06:56:44.779Z,79.13
2019-02-06T06:58:52.131Z,79.35
2019-02-06T07:00:59.583Z,79.17
2019-02-06T07:03:07.133Z,79.11
2019-02-06T07:05:14.562Z,79.13
2019-02-06T07:07:22.012Z,78.99
2019-02-06T07:09:29.362Z,79.14
2019-02-06T07:11:36.834Z,79.25
2019-02-06T07:13:44.288Z,79.26
2019-02-06T07:15:51.623Z,79.11
2019-02-06T07:17:59.148Z,79.12
2019-02-06T07:20:07.453Z,79.16
2019-02-06T07:22:14.815Z,79.02
2019-02-06T07:24:22.253Z,78.95
2019-02-06T07:26:29.715Z,78.86
2019-02-06T07:28:37.048Z,79.03
2019-02-06T07:30:56.238Z,79.01
2019-02-06T07:33:06.737Z,79.17
2019-02-06T07:35:13.960Z,78.75
2019-02-06T07:37:21.280Z,78.95
2019-02-06T07:39:28.676Z,79.00
2019-02-06T07:41:35.856Z,78.77
2019-02-06T07:43:43.705Z,78.88
2019-02-06T07:45:51.245Z,78.94
2019-02-06T07:47:58.827Z,78.93
2019-02-06T07:50:07.780Z,78.85
2019-02-06T07:52:15.328Z,78.90
2019-02-06T07:54:22.707Z,78.64
2019-02-06T07:56:30.245Z,78.97
2019-02-06T07:58:37.498Z,78.83
2019-02-06T08:00:44.908Z,78.92
2019-02-06T08:02:52.579Z,78.65
2019-02-06T08:05:06.391Z,78.93
2019-02-06T08:07:13.806Z,78.62
2019-02-06T08:09:21.165Z,78.66
2019-02-06T08:11:28.592Z,78.69
2019-02-06T08:13:35.876Z,78.65
2019-02-06T08:15:43.418Z,78.62
2019-02-06T08:17:50.909Z,78.54
2019-02-06T08:19:58.277Z,78.47
2019-02-06T08:22:05.807Z,78.46
2019-02-06T08:24:13.361Z,78.23
2019-02-06T08:26:20.769Z,78.33
2019-02-06T08:28:28.205Z,78.24
2019-02-06T08:30:41.320Z,78.40
2019-02-06T08:32:48.586Z,78.31
2019-02-06T08:34:56.100Z,78.36
2019-02-06T08:37:03.648Z,78.22
2019-02-06T08:39:11.486Z,78.06
2019-02-06T08:41:18.940Z,78.01
2019-02-06T08:43:26.395Z,78.08
2019-02-06T08:45:34.091Z,78.20
2019-02-06T08:47:41.801Z,77.79
2019-02-06T08:49:49.334Z,77.23
2019-02-06T08:51:56.809Z,77.45
2019-02-06T08:54:04.278Z,77.40
2019-02-06T08:56:11.835Z,76.88
2019-02-06T08:58:19.330Z,77.14
2019-02-06T09:00:29.855Z,77.31
2019-02-06T09:02:37.505Z,77.04
2019-02-06T09:04:55.563Z,76.91
2019-02-06T09:06:54.718Z,76.89
2019-02-06T09:09:02.564Z,77.03
2019-02-06T09:11:10.980Z,77.04
2019-02-06T09:13:18.590Z,77.33
2019-02-06T09:15:27.330Z,77.16
2019-02-06T09:17:34.970Z,76.58
2019-02-06T09:19:42.558Z,76.80
2019-02-06T09:21:50.154Z,76.53
2019-02-06T09:23:57.850Z,76.20
2019-02-06T09:26:05.416Z,76.36
2019-02-06T09:28:12.859Z,76.41
2019-02-06T09:30:23.402Z,75.92
2019-02-06T09:32:30.900Z,75.94
2019-02-06T09:34:38.525Z,76.77
2019-02-06T09:36:46.028Z,76.16
2019-02-06T09:38:53.680Z,76.70
2019-02-06T09:41:01.173Z,76.47
2019-02-06T09:43:08.891Z,75.61
2019-02-06T09:45:16.325Z,75.59
2019-02-06T09:47:23.655Z,75.14
2019-02-06T09:49:31.135Z,75.53
2019-02-06T09:51:38.657Z,75.17
2019-02-06T09:53:46.235Z,75.57
2019-02-06T09:55:53.688Z,75.49
2019-02-06T09:58:01.178Z,75.08
2019-02-06T10:00:13.294Z,76.43
2019-02-06T10:02:20.786Z,74.37
2019-02-06T10:04:28.216Z,75.21
2019-02-06T10:06:35.803Z,74.86
2019-02-06T10:08:43.285Z,74.73
2019-02-06T10:10:50.653Z,75.01
2019-02-06T10:12:58.047Z,74.39
2019-02-06T10:15:05.661Z,74.79
2019-02-06T10:17:13.129Z,75.00
2019-02-06T10:19:20.473Z,74.98
2019-02-06T10:21:27.845Z,74.68
2019-02-06T10:23:35.342Z,74.78
2019-02-06T10:25:43.459Z,74.75
2019-02-06T10:27:51.066Z,74.84
2019-02-06T10:29:58.728Z,74.85
2019-02-06T10:32:07.436Z,74.67
2019-02-06T10:34:15.026Z,74.62
2019-02-06T10:36:22.450Z,74.50
2019-02-06T10:38:29.913Z,73.94
2019-02-06T10:40:37.288Z,73.76
2019-02-06T10:42:44.866Z,73.86
2019-02-06T10:44:52.311Z,73.70
2019-02-06T10:46:59.731Z,73.80
2019-02-06T10:49:07.820Z,73.56
2019-02-06T10:51:15.870Z,72.63
2019-02-06T10:53:25.026Z,73.55
2019-02-06T10:55:32.514Z,73.07
2019-02-06T10:57:40.334Z,72.82
2019-02-06T10:59:47.902Z,73.62
2019-02-06T11:01:55.535Z,72.80
2019-02-06T11:04:03.012Z,72.88
2019-02-06T11:06:10.705Z,72.69
2019-02-06T11:08:18.524Z,73.62
2019-02-06T11:10:26.351Z,72.97
2019-02-06T11:12:34.385Z,71.94
2019-02-06T11:14:42.010Z,72.08
2019-02-06T11:16:49.553Z,72.63
2019-02-06T11:18:57.329Z,72.17
2019-02-06T11:21:04.696Z,72.71
2019-02-06T11:23:12.285Z,74.08
2019-02-06T11:25:20.080Z,72.63
2019-02-06T11:27:27.706Z,72.77
2019-02-06T11:29:35.219Z,72.86
2019-02-06T11:31:42.821Z,72.77
2019-02-06T11:33:50.466Z,72.79
2019-02-06T11:35:58.090Z,72.75
2019-02-06T11:38:05.667Z,72.63
2019-02-06T11:40:18.644Z,72.91
2019-02-06T11:42:26.239Z,72.64
2019-02-06T11:44:33.990Z,73.22
2019-02-06T11:46:41.574Z,72.42
2019-02-06T11:48:49.087Z,71.62
2019-02-06T11:50:57.360Z,71.66
2019-02-06T11:53:05.018Z,71.37
2019-02-06T11:55:16.625Z,72.28
2019-02-06T11:57:24.427Z,71.64
2019-02-06T11:59:32.024Z,70.87
2019-02-06T12:01:46.409Z,71.14
2019-02-06T12:03:54.278Z,71.20
2019-02-06T12:06:01.562Z,71.64
2019-02-06T12:08:12.414Z,70.99
2019-02-06T12:10:19.126Z,70.80
2019-02-06T12:12:26.604Z,71.21
2019-02-06T12:14:34.200Z,71.12
2019-02-06T12:16:41.974Z,71.34
2019-02-06T12:18:49.472Z,71.07
2019-02-06T12:20:57.131Z,70.44
2019-02-06T12:23:05.595Z,70.28
2019-02-06T12:25:15.342Z,70.50
2019-02-06T12:27:23.265Z,70.47
2019-02-06T12:29:31.304Z,69.62
2019-02-06T12:31:39.050Z,69.68
2019-02-06T12:33:46.677Z,69.65
2019-02-06T12:35:54.087Z,70.71
2019-02-06T12:38:01.535Z,69.80
2019-02-06T12:40:20.747Z,70.03
2019-02-06T12:42:18.265Z,69.21
2019-02-06T12:44:25.291Z,69.61
2019-02-06T12:46:32.562Z,69.11
2019-02-06T12:48:40.161Z,69.15
2019-02-06T12:50:47.306Z,69.30
2019-02-06T12:52:57.225Z,68.44
2019-02-06T12:55:03.349Z,68.75
2019-02-06T12:57:10.396Z,68.11
2019-02-06T12:59:17.620Z,68.57
2019-02-06T13:01:24.840Z,68.77
2019-02-06T13:03:31.979Z,68.56
2019-02-06T13:05:39.085Z,68.53
2019-02-06T13:07:46.144Z,69.11
2019-02-06T13:09:53.196Z,68.75
2019-02-06T13:12:00.398Z,68.68
2019-02-06T13:14:07.663Z,68.90
2019-02-06T13:16:14.804Z,68.97
2019-02-06T13:18:24.140Z,69.44
2019-02-06T13:20:31.444Z,69.22
2019-02-06T13:22:38.469Z,69.34
2019-02-06T13:24:45.932Z,69.53
2019-02-06T13:26:53.047Z,69.64
2019-02-06T13:29:00.667Z,69.33
2019-02-06T13:31:07.718Z,69.22
2019-02-06T13:33:14.832Z,68.71
2019-02-06T13:35:21.895Z,69.45
2019-02-06T13:37:28.977Z,69.14
2019-02-06T13:39:36.070Z,69.36
2019-02-06T13:41:43.367Z,69.32
2019-02-06T13:43:50.568Z,69.03
2019-02-06T13:45:57.744Z,69.42
2019-02-06T13:48:05.342Z,69.71
2019-02-06T13:50:21.526Z,70.26
2019-02-06T13:52:22.189Z,70.46
2019-02-06T13:54:29.327Z,68.72
2019-02-06T13:56:37.136Z,68.56
2019-02-06T13:58:44.663Z,68.73
2019-02-06T14:00:52.599Z,68.66
2019-02-06T14:02:59.936Z,68.90
2019-02-06T14:05:07.212Z,68.69
2019-02-06T14:07:14.316Z,69.47
2019-02-06T14:09:24.251Z,68.91
2019-02-06T14:11:30.208Z,69.22
2019-02-06T14:13:37.388Z,69.35
2019-02-06T14:15:47.038Z,69.53
2019-02-06T14:17:54.463Z,69.43
2019-02-06T14:20:01.917Z,70.26
2019-02-06T14:22:09.990Z,70.14
2019-02-06T14:24:55.503Z,70.30
2019-02-06T14:27:59.666Z,70.12
2019-02-06T14:31:02.846Z,69.70
2019-02-06T14:34:21.520Z,69.60
2019-02-06T14:37:45.814Z,69.48
2019-02-06T14:40:53.659Z,69.70
2019-02-06T14:43:39.074Z,69.88
2019-02-06T14:46:47.907Z,70.66
2019-02-06T14:49:34.916Z,69.75
2019-02-06T14:52:23.418Z,69.87
2019-02-06T14:55:24.700Z,71.58
2019-02-06T14:58:22.519Z,70.56
2019-02-06T15:00:59.910Z,69.84
2019-02-06T15:03:58.642Z,70.16
2019-02-06T15:07:05.892Z,70.31
2019-02-06T15:10:20.447Z,70.84
2019-02-06T15:13:22.637Z,70.85
2019-02-06T15:16:09.783Z,70.58
2019-02-06T15:19:15.013Z,71.10
2019-02-06T15:22:17.557Z,70.27
2019-02-06T15:25:08.515Z,70.31
2019-02-06T15:28:06.666Z,70.42
2019-02-06T15:31:22.655Z,71.20
2019-02-06T15:34:15.521Z,71.41
2019-02-06T15:36:50.615Z,73.22
2019-02-06T15:39:51.614Z,72.97
2019-02-06T15:42:57.580Z,72.84
2019-02-06T15:45:37.884Z,73.53
2019-02-06T15:48:30.023Z,72.99
2019-02-06T15:51:38.383Z,73.84
2019-02-06T15:54:21.176Z,74.40
2019-02-06T15:57:26.677Z,74.28
2019-02-06T16:00:24.393Z,74.04
2019-02-06T16:03:56.158Z,74.75
2019-02-06T16:06:53.242Z,74.50
2019-02-06T16:09:45.814Z,75.01
2019-02-06T16:13:08.604Z,75.59
2019-02-06T16:16:44.260Z,75.66
2019-02-06T16:19:23.774Z,75.71
2019-02-06T16:22:07.317Z,76.03
2019-02-06T16:25:09.966Z,76.19
2019-02-06T16:28:00.204Z,76.57
2019-02-06T16:31:12.619Z,76.50
2019-02-06T16:34:06.473Z,76.50
2019-02-06T16:40:37.580Z,76.39
2019-02-06T16:43:35.460Z,76.95
2019-02-06T16:46:49.681Z,77.29
2019-02-06T16:49:28.020Z,77.04
2019-02-06T16:52:19.816Z,76.28
2019-02-06T16:55:30.927Z,76.73
2019-02-06T16:58:20.822Z,77.52
2019-02-06T17:01:21.922Z,77.13
2019-02-06T17:04:04.922Z,76.74
2019-02-06T17:06:45.616Z,78.37
2019-02-06T17:10:05.007Z,77.86
2019-02-06T17:12:59.326Z,77.00
2019-02-06T17:16:11.980Z,77.57
2019-02-06T17:19:17.013Z,78.07
2019-02-06T17:22:08.311Z,78.22
2019-02-06T17:25:10.264Z,77.95
2019-02-06T17:28:27.993Z,77.77
2019-02-06T17:31:42.589Z,77.86
2019-02-06T17:34:48.624Z,78.20
2019-02-06T17:37:56.649Z,78.70
2019-02-06T17:41:18.643Z,78.69
2019-02-06T17:44:17.176Z,78.56
2019-02-06T17:46:51.394Z,78.44
2019-02-06T17:49:49.659Z,78.15
2019-02-06T17:52:44.527Z,78.95
2019-02-06T17:55:38.985Z,78.57
2019-02-06T17:57:47.083Z,79.33
2019-02-06T17:59:54.628Z,79.46
2019-02-06T18:02:02.539Z,78.85
2019-02-06T18:04:49.401Z,79.11
2019-02-06T18:06:57.334Z,79.03
2019-02-06T18:09:08.399Z,79.39
2019-02-06T18:11:16.098Z,79.68
2019-02-06T18:13:24.149Z,78.85
2019-02-06T18:15:31.671Z,78.93
2019-02-06T18:17:39.331Z,78.86
2019-02-06T18:19:47.163Z,78.65
2019-02-06T18:21:54.749Z,78.26
2019-02-06T18:24:02.279Z,78.64
2019-02-06T18:26:10.224Z,78.87
2019-02-06T18:28:18.520Z,78.45
2019-02-06T18:30:27.410Z,79.49
2019-02-06T18:32:34.884Z,79.62
2019-02-06T18:34:42.621Z,79.10
2019-02-06T18:36:50.135Z,79.87
2019-02-06T18:38:58.127Z,79.90
2019-02-06T18:41:06.156Z,79.37
2019-02-06T18:43:13.708Z,78.63
2019-02-06T18:45:22.748Z,79.11
2019-02-06T18:47:30.484Z,79.97
2019-02-06T18:49:37.838Z,79.35
2019-02-06T18:51:45.849Z,78.62
2019-02-06T18:53:53.562Z,78.43
2019-02-06T18:56:01.080Z,78.23
2019-02-06T18:58:09.308Z,77.81
2019-02-06T19:00:24.478Z,77.92
2019-02-06T19:02:32.195Z,78.04
2019-02-06T19:04:40.720Z,77.21
2019-02-06T19:06:48.521Z,78.33
2019-02-06T19:08:58.093Z,78.11
2019-02-06T19:11:05.955Z,78.83
2019-02-06T19:13:14.356Z,79.07
2019-02-06T19:15:22.317Z,78.93
2019-02-06T19:17:30.959Z,79.41
2019-02-06T19:19:39.137Z,78.06
2019-02-06T19:21:46.722Z,78.21
2019-02-06T19:23:54.314Z,78.21
2019-02-06T19:26:01.986Z,78.49
2019-02-06T19:28:09.505Z,78.47
2019-02-06T19:30:26.020Z,79.37
2019-02-06T19:32:34.013Z,79.51
2019-02-06T19:34:41.687Z,78.41
2019-02-06T19:36:49.242Z,78.48
2019-02-06T19:38:56.762Z,78.42
2019-02-06T19:41:04.466Z,78.56
2019-02-06T19:43:11.964Z,78.57
2019-02-06T19:45:20.060Z,78.90
2019-02-06T19:47:30.560Z,77.80
2019-02-06T19:49:37.765Z,77.37
2019-02-06T19:51:45.730Z,77.33
2019-02-06T19:53:53.246Z,77.37
2019-02-06T19:56:00.948Z,77.04
2019-02-06T19:58:09.385Z,77.21
2019-02-06T20:00:21.317Z,77.35
2019-02-06T20:02:29.247Z,76.97
2019-02-06T20:04:37.232Z,77.13
2019-02-06T20:06:44.979Z,77.11
2019-02-06T20:08:52.697Z,77.24
2019-02-06T20:11:01.254Z,77.31
2019-02-06T20:13:11.441Z,77.45
2019-02-06T20:15:18.327Z,77.49
2019-02-06T20:17:26.190Z,77.71
2019-02-06T20:19:33.920Z,77.90
2019-02-06T20:21:41.462Z,77.88
2019-02-06T20:23:48.838Z,78.12
2019-02-06T20:25:56.916Z,77.98
2019-02-06T20:28:04.821Z,78.02
2019-02-06T20:30:17.294Z,78.09
2019-02-06T20:32:24.945Z,78.35
2019-02-06T20:34:32.834Z,78.29
2019-02-06T20:36:40.549Z,78.92
2019-02-06T20:38:48.841Z,78.72
2019-02-06T20:40:58.407Z,79.17
2019-02-06T20:43:06.295Z,78.77
2019-02-06T20:45:14.124Z,79.07
2019-02-06T20:47:22.064Z,79.73
2019-02-06T20:49:29.731Z,79.82
2019-02-06T20:51:37.439Z,79.43
2019-02-06T20:53:45.212Z,79.13
2019-02-06T20:55:52.867Z,79.31
2019-02-06T20:58:00.613Z,79.67
2019-02-06T21:00:12.751Z,79.57
2019-02-06T21:02:20.440Z,79.58
2019-02-06T21:04:28.333Z,79.41
2019-02-06T21:06:35.766Z,79.30
2019-02-06T21:08:43.386Z,79.65
2019-02-06T21:10:51.376Z,79.46
2019-02-06T21:12:59.274Z,79.76
2019-02-06T21:15:06.913Z,79.75
2019-02-06T21:17:14.566Z,79.73
2019-02-06T21:19:22.638Z,79.90
2019-02-06T21:21:30.419Z,79.95
2019-02-06T21:23:37.940Z,80.04
2019-02-06T21:25:46.962Z,79.90
2019-02-06T21:27:54.549Z,79.71
2019-02-06T21:30:02.187Z,79.73
2019-02-06T21:32:09.691Z,80.08
2019-02-06T21:34:17.266Z,79.98
2019-02-06T21:36:24.667Z,80.09
2019-02-06T21:38:32.313Z,80.29
2019-02-06T21:40:39.850Z,80.14
2019-02-06T21:42:47.946Z,80.56
2019-02-06T21:44:55.913Z,80.37
2019-02-06T21:47:04.022Z,80.14
2019-02-06T21:49:11.811Z,80.29
2019-02-06T21:51:19.451Z,80.22
2019-02-06T21:53:26.848Z,80.36
2019-02-06T21:55:34.608Z,80.57
2019-02-06T21:57:43.824Z,80.60
2019-02-06T21:59:51.359Z,80.30
2019-02-06T22:01:59.108Z,80.64
2019-02-06T22:04:07.094Z,80.77
2019-02-06T22:06:14.911Z,80.23
2019-02-06T22:08:24.890Z,80.31
2019-02-06T22:10:32.548Z,80.39
2019-02-06T22:12:40.107Z,80.28
2019-02-06T22:14:47.868Z,80.00
2019-02-06T22:16:55.326Z,79.97
2019-02-06T22:19:03.195Z,80.50
2019-02-06T22:21:11.061Z,80.25
2019-02-06T22:23:19.032Z,80.56
2019-02-06T22:25:27.199Z,80.66
2019-02-06T22:27:35.334Z,80.11
2019-02-06T22:29:43.380Z,80.30
2019-02-06T22:31:51.099Z,80.75
2019-02-06T22:33:59.224Z,80.74
2019-02-06T22:36:07.064Z,80.93
2019-02-06T22:38:14.823Z,81.16
2019-02-06T22:40:24.492Z,80.80
2019-02-06T22:42:32.561Z,80.48
2019-02-06T22:44:41.136Z,80.32
2019-02-06T22:46:48.978Z,80.41
2019-02-06T22:48:56.967Z,80.57
2019-02-06T22:51:04.796Z,81.08
2019-02-06T22:53:12.707Z,81.51
2019-02-06T22:55:20.625Z,81.66
2019-02-06T22:57:28.632Z,81.50
2019-02-06T22:59:36.252Z,81.84
2019-02-06T23:02:02.177Z,81.56
2019-02-06T23:04:09.885Z,81.62
2019-02-06T23:06:17.649Z,81.63
2019-02-06T23:08:25.481Z,81.54
2019-02-06T23:10:33.128Z,81.63
2019-02-06T23:12:40.815Z,81.53
2019-02-06T23:14:48.459Z,81.43
2019-02-06T23:16:56.328Z,81.65
2019-02-06T23:19:04.176Z,81.54
2019-02-06T23:21:11.970Z,81.60
2019-02-06T23:23:19.798Z,81.71
2019-02-06T23:25:27.406Z,81.55
2019-02-06T23:27:35.143Z,81.63
2019-02-06T23:29:43.045Z,81.62
2019-02-06T23:31:50.981Z,81.58
2019-02-06T23:33:59.024Z,81.65
2019-02-06T23:36:07.212Z,81.59
2019-02-06T23:38:14.949Z,81.46
2019-02-06T23:40:22.918Z,81.40
2019-02-06T23:42:30.803Z,81.55
2019-02-06T23:44:38.533Z,81.49
2019-02-06T23:46:46.031Z,81.57
2019-02-06T23:48:53.651Z,81.60
2019-02-06T23:51:01.490Z,81.62
2019-02-06T23:53:09.153Z,81.46
2019-02-06T23:55:16.819Z,81.41
2019-02-06T23:57:24.380Z,81.20
2019-02-06T23:59:32.087Z,81.24
